BAW36Y ENBR-EGPD
Flight info
| Callsign | BAW36Y |
|---|---|
| Flight time | 1h 1m |
| Altitude | 32000 |
| Route | EPOTU DCT RIGVU DCT OVDAN P600 ADN |
| Aircraft | B77W/H-SDE1E2E3FGHIJ2J3J4J5M1RWXY/LB1D1 |
Departure
| Time | 2026-04-27 16:12 |
|---|---|
| Airport | Bergen Airport, Flesland (ENBR) |
Arrival
| Time | 2026-04-27 17:13 |
|---|---|
| Airport | Aberdeen International Airport (EGPD) |
| Time | Latitude | Longitude | Altitude | Speed | Heading |
|---|---|---|---|---|---|
| 2026-04-27 15:21 | 60.28619 | 5.22625 | 174 ft | 0 kts | 81° |
| 2026-04-27 16:02 | 60.28618 | 5.22618 | 174 ft | 2 kts | 81° |
| 2026-04-27 16:02 | 60.28616 | 5.22586 | 174 ft | 2 kts | 81° |
| 2026-04-27 16:02 | 60.28613 | 5.22553 | 173 ft | 2 kts | 81° |
| 2026-04-27 16:03 | 60.28611 | 5.22525 | 174 ft | 1 kts | 81° |
| 2026-04-27 16:03 | 60.28609 | 5.22510 | 173 ft | 1 kts | 116° |
| 2026-04-27 16:03 | 60.28612 | 5.22498 | 173 ft | 0 kts | 162° |
| 2026-04-27 16:03 | 60.28614 | 5.22496 | 173 ft | 0 kts | 163° |
| 2026-04-27 16:06 | 60.28591 | 5.22506 | 172 ft | 6 kts | 169° |
| 2026-04-27 16:06 | 60.28540 | 5.22526 | 171 ft | 9 kts | 169° |
| 2026-04-27 16:06 | 60.28468 | 5.22554 | 168 ft | 12 kts | 169° |
| 2026-04-27 16:07 | 60.28374 | 5.22580 | 166 ft | 13 kts | 172° |
| 2026-04-27 16:07 | 60.28359 | 5.22584 | 165 ft | 0 kts | 172° |
| 2026-04-27 16:08 | 60.28357 | 5.22585 | 165 ft | 2 kts | 174° |
| 2026-04-27 16:08 | 60.28319 | 5.22557 | 164 ft | 5 kts | 217° |
| 2026-04-27 16:08 | 60.28283 | 5.22510 | 163 ft | 8 kts | 203° |
| 2026-04-27 16:08 | 60.28222 | 5.22511 | 161 ft | 10 kts | 171° |
| 2026-04-27 16:09 | 60.28142 | 5.22537 | 158 ft | 13 kts | 172° |
| 2026-04-27 16:09 | 60.28063 | 5.22475 | 157 ft | 0 kts | 251° |
| 2026-04-27 16:10 | 60.28054 | 5.22410 | 157 ft | 12 kts | 256° |
| 2026-04-27 16:10 | 60.28153 | 5.22213 | 158 ft | 13 kts | 351° |
| 2026-04-27 16:11 | 60.28313 | 5.22158 | 160 ft | 55 kts | 350° |
| 2026-04-27 16:11 | 60.30087 | 5.21646 | 468 ft | 164 kts | 349° |
| 2026-04-27 16:12 | 60.32403 | 5.20768 | 2115 ft | 184 kts | 350° |
| 2026-04-27 16:12 | 60.33771 | 5.20341 | 2473 ft | 215 kts | 351° |
| 2026-04-27 16:12 | 60.37030 | 5.19307 | 3758 ft | 247 kts | 351° |
| 2026-04-27 16:13 | 60.38685 | 5.18406 | 4526 ft | 250 kts | 330° |
| 2026-04-27 16:13 | 60.40110 | 5.12207 | 6173 ft | 266 kts | 263° |
| 2026-04-27 16:13 | 60.39505 | 5.08648 | 7083 ft | 272 kts | 242° |
| 2026-04-27 16:14 | 60.36961 | 5.02738 | 8773 ft | 287 kts | 225° |
| 2026-04-27 16:14 | 60.34029 | 4.97150 | 10599 ft | 295 kts | 224° |
| 2026-04-27 16:15 | 60.30824 | 4.91006 | 11295 ft | 347 kts | 225° |
| 2026-04-27 16:15 | 60.27153 | 4.83872 | 12650 ft | 376 kts | 225° |
| 2026-04-27 16:16 | 60.23376 | 4.76491 | 14824 ft | 388 kts | 225° |
| 2026-04-27 16:16 | 60.19446 | 4.68805 | 16750 ft | 400 kts | 225° |
| 2026-04-27 16:17 | 60.15407 | 4.60920 | 17421 ft | 409 kts | 225° |
| 2026-04-27 16:17 | 60.11329 | 4.52991 | 17701 ft | 411 kts | 225° |
| 2026-04-27 16:18 | 60.07172 | 4.44937 | 19636 ft | 419 kts | 225° |
| 2026-04-27 16:18 | 60.02919 | 4.36725 | 21252 ft | 432 kts | 225° |
| 2026-04-27 16:19 | 60.00736 | 4.32523 | 22027 ft | 439 kts | 225° |
| 2026-04-27 16:19 | 59.98522 | 4.28270 | 22803 ft | 445 kts | 225° |
| 2026-04-27 16:20 | 59.91689 | 4.15191 | 24915 ft | 462 kts | 224° |
| 2026-04-27 16:20 | 59.89353 | 4.10736 | 25567 ft | 467 kts | 224° |
| 2026-04-27 16:20 | 59.84561 | 4.01705 | 26539 ft | 483 kts | 224° |
| 2026-04-27 16:21 | 59.82086 | 3.97141 | 27049 ft | 489 kts | 223° |
| 2026-04-27 16:21 | 59.74454 | 3.83175 | 28556 ft | 505 kts | 223° |
| 2026-04-27 16:22 | 59.71861 | 3.78438 | 29073 ft | 509 kts | 223° |
| 2026-04-27 16:22 | 59.66624 | 3.68886 | 30151 ft | 514 kts | 223° |
| 2026-04-27 16:22 | 59.63992 | 3.64098 | 30730 ft | 514 kts | 223° |
| 2026-04-27 16:23 | 59.61362 | 3.59325 | 31260 ft | 514 kts | 223° |
| 2026-04-27 16:23 | 59.56102 | 3.49811 | 32341 ft | 512 kts | 223° |
| 2026-04-27 16:23 | 59.53456 | 3.45040 | 32476 ft | 520 kts | 223° |
| 2026-04-27 16:24 | 59.50783 | 3.40232 | 32439 ft | 520 kts | 223° |
| 2026-04-27 16:25 | 59.40158 | 3.21225 | 32399 ft | 511 kts | 223° |
| 2026-04-27 16:26 | 59.29546 | 3.02410 | 32430 ft | 520 kts | 223° |
| 2026-04-27 16:27 | 59.18789 | 2.83506 | 32419 ft | 518 kts | 222° |
| 2026-04-27 16:27 | 59.10857 | 2.69675 | 32396 ft | 498 kts | 222° |
| 2026-04-27 16:28 | 59.06540 | 2.62184 | 32415 ft | 497 kts | 222° |
| 2026-04-27 16:29 | 58.93462 | 2.39645 | 32418 ft | 509 kts | 222° |
| 2026-04-27 16:30 | 58.88144 | 2.30549 | 32812 ft | 510 kts | 222° |
| 2026-04-27 16:30 | 58.82814 | 2.21465 | 33638 ft | 513 kts | 223° |
| 2026-04-27 16:31 | 58.75181 | 2.07019 | 34650 ft | 518 kts | 230° |
| 2026-04-27 16:31 | 58.70391 | 1.96721 | 34602 ft | 510 kts | 230° |
| 2026-04-27 16:32 | 58.65697 | 1.86727 | 34322 ft | 500 kts | 230° |
| 2026-04-27 16:32 | 58.63347 | 1.81766 | 33805 ft | 504 kts | 230° |
| 2026-04-27 16:33 | 58.58596 | 1.71801 | 32921 ft | 508 kts | 229° |
| 2026-04-27 16:33 | 58.56208 | 1.66815 | 32528 ft | 508 kts | 229° |
| 2026-04-27 16:33 | 58.53816 | 1.61834 | 32400 ft | 506 kts | 229° |
| 2026-04-27 16:33 | 58.51432 | 1.56881 | 32407 ft | 508 kts | 229° |
| 2026-04-27 16:34 | 58.46625 | 1.46918 | 32448 ft | 510 kts | 229° |
| 2026-04-27 16:34 | 58.29566 | 1.11898 | 32354 ft | 505 kts | 229° |
| 2026-04-27 16:35 | 58.19873 | 0.92230 | 32498 ft | 516 kts | 229° |
| 2026-04-27 16:35 | 58.17209 | 0.86856 | 32492 ft | 516 kts | 229° |
| 2026-04-27 16:35 | 58.09886 | 0.72157 | 32408 ft | 498 kts | 229° |
| 2026-04-27 16:36 | 58.00682 | 0.53794 | 32341 ft | 493 kts | 229° |
| 2026-04-27 16:36 | 57.95785 | 0.44073 | 32405 ft | 510 kts | 229° |
| 2026-04-27 16:37 | 57.91018 | 0.34216 | 32417 ft | 505 kts | 236° |
| 2026-04-27 16:37 | 57.87344 | 0.23141 | 32402 ft | 495 kts | 248° |
| 2026-04-27 16:38 | 57.84727 | 0.11313 | 32401 ft | 486 kts | 252° |
| 2026-04-27 16:38 | 57.81636 | -0.00054 | 32368 ft | 490 kts | 246° |
| 2026-04-27 16:39 | 57.78546 | -0.11435 | 32392 ft | 488 kts | 254° |
| 2026-04-27 16:39 | 57.76295 | -0.23380 | 32411 ft | 488 kts | 258° |
| 2026-04-27 16:40 | 57.74106 | -0.35479 | 32405 ft | 493 kts | 257° |
| 2026-04-27 16:40 | 57.71826 | -0.47609 | 32401 ft | 495 kts | 257° |
| 2026-04-27 16:41 | 57.69503 | -0.59703 | 32387 ft | 495 kts | 255° |
| 2026-04-27 16:41 | 57.66880 | -0.71586 | 32388 ft | 494 kts | 253° |
| 2026-04-27 16:42 | 57.64177 | -0.83356 | 32408 ft | 492 kts | 253° |
| 2026-04-27 16:42 | 57.61522 | -0.95108 | 32392 ft | 490 kts | 253° |
| 2026-04-27 16:43 | 57.58890 | -1.06825 | 32387 ft | 490 kts | 253° |
| 2026-04-27 16:43 | 57.56249 | -1.18517 | 32389 ft | 490 kts | 253° |
| 2026-04-27 16:44 | 57.53592 | -1.30189 | 32385 ft | 490 kts | 254° |
| 2026-04-27 16:44 | 57.50923 | -1.41871 | 32392 ft | 492 kts | 254° |
| 2026-04-27 16:45 | 57.48235 | -1.53582 | 32391 ft | 493 kts | 254° |
| 2026-04-27 16:45 | 57.45377 | -1.65159 | 32366 ft | 484 kts | 251° |
| 2026-04-27 16:45 | 57.43940 | -1.70706 | 32364 ft | 469 kts | 251° |
| 2026-04-27 16:46 | 57.42549 | -1.76076 | 32364 ft | 453 kts | 252° |
| 2026-04-27 16:46 | 57.39919 | -1.86535 | 32369 ft | 443 kts | 259° |
| 2026-04-27 16:46 | 57.39258 | -1.91862 | 32388 ft | 419 kts | 279° |
| 2026-04-27 16:47 | 57.39497 | -1.97084 | 32405 ft | 399 kts | 294° |
| 2026-04-27 16:47 | 57.40308 | -2.01900 | 32396 ft | 384 kts | 304° |
| 2026-04-27 16:47 | 57.41400 | -2.06411 | 32405 ft | 383 kts | 305° |
| 2026-04-27 16:47 | 57.42320 | -2.11094 | 32386 ft | 398 kts | 291° |
| 2026-04-27 16:48 | 57.42490 | -2.16342 | 32364 ft | 417 kts | 277° |
| 2026-04-27 16:48 | 57.42028 | -2.21743 | 32012 ft | 431 kts | 265° |
| 2026-04-27 16:48 | 57.40953 | -2.27020 | 31562 ft | 445 kts | 251° |
| 2026-04-27 16:49 | 57.37072 | -2.36237 | 30673 ft | 464 kts | 228° |
| 2026-04-27 16:49 | 57.34512 | -2.39920 | 30134 ft | 469 kts | 218° |
| 2026-04-27 16:49 | 57.31635 | -2.42822 | 29656 ft | 472 kts | 206° |
| 2026-04-27 16:49 | 57.28557 | -2.44899 | 29213 ft | 472 kts | 193° |
| 2026-04-27 16:50 | 57.25316 | -2.45532 | 28766 ft | 466 kts | 174° |
| 2026-04-27 16:50 | 57.22170 | -2.44554 | 28363 ft | 454 kts | 159° |
| 2026-04-27 16:50 | 57.19195 | -2.42797 | 27995 ft | 446 kts | 154° |
| 2026-04-27 16:50 | 57.16290 | -2.40838 | 27603 ft | 442 kts | 153° |
| 2026-04-27 16:51 | 57.13423 | -2.38825 | 27187 ft | 440 kts | 153° |
| 2026-04-27 16:51 | 57.10597 | -2.36765 | 26789 ft | 431 kts | 148° |
| 2026-04-27 16:51 | 57.08157 | -2.33823 | 26465 ft | 409 kts | 127° |
| 2026-04-27 16:51 | 57.06429 | -2.29893 | 26119 ft | 387 kts | 111° |
| 2026-04-27 16:52 | 57.05134 | -2.25632 | 25725 ft | 379 kts | 106° |
| 2026-04-27 16:52 | 57.03966 | -2.21318 | 25300 ft | 377 kts | 105° |
| 2026-04-27 16:52 | 57.02835 | -2.16992 | 24890 ft | 375 kts | 105° |
| 2026-04-27 16:52 | 57.01550 | -2.12803 | 24422 ft | 386 kts | 120° |
| 2026-04-27 16:53 | 56.99565 | -2.09433 | 23967 ft | 404 kts | 141° |
| 2026-04-27 16:53 | 56.96939 | -2.07269 | 23405 ft | 416 kts | 160° |
| 2026-04-27 16:53 | 56.94138 | -2.06055 | 22332 ft | 419 kts | 166° |
| 2026-04-27 16:53 | 56.91277 | -2.05115 | 21149 ft | 416 kts | 168° |
| 2026-04-27 16:54 | 56.88400 | -2.04244 | 20012 ft | 410 kts | 168° |
| 2026-04-27 16:54 | 56.85644 | -2.03421 | 18947 ft | 403 kts | 168° |
| 2026-04-27 16:54 | 56.82900 | -2.02604 | 17767 ft | 396 kts | 168° |
| 2026-04-27 16:54 | 56.80210 | -2.01802 | 16517 ft | 389 kts | 169° |
| 2026-04-27 16:55 | 56.77558 | -2.01006 | 15257 ft | 383 kts | 169° |
| 2026-04-27 16:55 | 56.74948 | -2.00214 | 14036 ft | 377 kts | 169° |
| 2026-04-27 16:55 | 56.72383 | -1.99424 | 12707 ft | 370 kts | 169° |
| 2026-04-27 16:55 | 56.69874 | -1.98546 | 11440 ft | 364 kts | 166° |
| 2026-04-27 16:56 | 56.67446 | -1.97390 | 10196 ft | 358 kts | 162° |
| 2026-04-27 16:56 | 56.65149 | -1.95779 | 8880 ft | 351 kts | 150° |
| 2026-04-27 16:56 | 56.63208 | -1.93202 | 7603 ft | 343 kts | 132° |
| 2026-04-27 16:56 | 56.61856 | -1.89791 | 6815 ft | 322 kts | 112° |
| 2026-04-27 16:57 | 56.61231 | -1.86086 | 6285 ft | 294 kts | 92° |
| 2026-04-27 16:57 | 56.61370 | -1.82632 | 6296 ft | 268 kts | 70° |
| 2026-04-27 16:57 | 56.62184 | -1.79617 | 6377 ft | 267 kts | 49° |
| 2026-04-27 16:57 | 56.63540 | -1.77382 | 6364 ft | 261 kts | 28° |
| 2026-04-27 16:58 | 56.65207 | -1.76286 | 6372 ft | 253 kts | 7° |
| 2026-04-27 16:58 | 56.66951 | -1.76235 | 6381 ft | 251 kts | 356° |
| 2026-04-27 16:58 | 56.68701 | -1.76473 | 6386 ft | 254 kts | 355° |
| 2026-04-27 16:58 | 56.70464 | -1.76756 | 6381 ft | 255 kts | 355° |
| 2026-04-27 16:59 | 56.72238 | -1.77048 | 6381 ft | 256 kts | 355° |
| 2026-04-27 16:59 | 56.74008 | -1.77367 | 6371 ft | 253 kts | 351° |
| 2026-04-27 16:59 | 56.75622 | -1.78552 | 6284 ft | 252 kts | 330° |
| 2026-04-27 16:59 | 56.77096 | -1.80302 | 6019 ft | 253 kts | 329° |
| 2026-04-27 17:00 | 56.79592 | -1.83065 | 5463 ft | 252 kts | 332° |
| 2026-04-27 17:00 | 56.81627 | -1.85182 | 5031 ft | 251 kts | 332° |
| 2026-04-27 17:00 | 56.83153 | -1.86723 | 4712 ft | 250 kts | 333° |
| 2026-04-27 17:01 | 56.84673 | -1.88233 | 4397 ft | 248 kts | 333° |
| 2026-04-27 17:01 | 56.86193 | -1.89725 | 4075 ft | 248 kts | 333° |
| 2026-04-27 17:01 | 56.87716 | -1.91209 | 3751 ft | 248 kts | 334° |
| 2026-04-27 17:01 | 56.89238 | -1.92684 | 3435 ft | 247 kts | 334° |
| 2026-04-27 17:02 | 56.90755 | -1.94150 | 3125 ft | 247 kts | 334° |
| 2026-04-27 17:02 | 56.92262 | -1.95604 | 2948 ft | 241 kts | 334° |
| 2026-04-27 17:02 | 56.93736 | -1.97025 | 2894 ft | 240 kts | 334° |
| 2026-04-27 17:02 | 56.95227 | -1.98461 | 2894 ft | 245 kts | 334° |
| 2026-04-27 17:03 | 56.96744 | -1.99924 | 2898 ft | 248 kts | 334° |
| 2026-04-27 17:03 | 56.98270 | -2.01396 | 2894 ft | 247 kts | 334° |
| 2026-04-27 17:03 | 56.99788 | -2.02862 | 2889 ft | 246 kts | 334° |
| 2026-04-27 17:03 | 57.01301 | -2.04323 | 2892 ft | 245 kts | 334° |
| 2026-04-27 17:04 | 57.02805 | -2.05776 | 2886 ft | 241 kts | 334° |
| 2026-04-27 17:04 | 57.04253 | -2.07179 | 2878 ft | 229 kts | 334° |
| 2026-04-27 17:04 | 57.05619 | -2.08504 | 2878 ft | 216 kts | 334° |
| 2026-04-27 17:04 | 57.06938 | -2.09782 | 2885 ft | 214 kts | 334° |
| 2026-04-27 17:05 | 57.08260 | -2.10999 | 2887 ft | 210 kts | 345° |
| 2026-04-27 17:05 | 57.09680 | -2.10911 | 2940 ft | 211 kts | 23° |
| 2026-04-27 17:05 | 57.10854 | -2.09244 | 2950 ft | 220 kts | 49° |
| 2026-04-27 17:05 | 57.11397 | -2.07659 | 2942 ft | 223 kts | 64° |
| 2026-04-27 17:06 | 57.11551 | -2.03895 | 2792 ft | 227 kts | 105° |
| 2026-04-27 17:06 | 57.10733 | -2.01465 | 2650 ft | 231 kts | 136° |
| 2026-04-27 17:06 | 57.09362 | -1.99971 | 2576 ft | 231 kts | 155° |
| 2026-04-27 17:06 | 57.07851 | -1.98899 | 2502 ft | 232 kts | 158° |
| 2026-04-27 17:07 | 57.06364 | -1.97883 | 2473 ft | 223 kts | 158° |
| 2026-04-27 17:07 | 57.04946 | -1.96902 | 2510 ft | 214 kts | 157° |
| 2026-04-27 17:07 | 57.03546 | -1.96213 | 2460 ft | 205 kts | 179° |
| 2026-04-27 17:07 | 57.02190 | -1.96715 | 2485 ft | 197 kts | 205° |
| 2026-04-27 17:08 | 57.01105 | -1.98165 | 2487 ft | 192 kts | 233° |
| 2026-04-27 17:08 | 57.00505 | -2.00312 | 2490 ft | 189 kts | 261° |
| 2026-04-27 17:08 | 57.00502 | -2.02692 | 2493 ft | 187 kts | 288° |
| 2026-04-27 17:08 | 57.01158 | -2.04648 | 2485 ft | 180 kts | 326° |
| 2026-04-27 17:09 | 57.02203 | -2.05849 | 2499 ft | 178 kts | 332° |
| 2026-04-27 17:09 | 57.03293 | -2.06969 | 2496 ft | 181 kts | 333° |
| 2026-04-27 17:09 | 57.04392 | -2.08047 | 2475 ft | 177 kts | 336° |
| 2026-04-27 17:09 | 57.05503 | -2.08965 | 2478 ft | 174 kts | 339° |
| 2026-04-27 17:10 | 57.06619 | -2.09805 | 2493 ft | 174 kts | 340° |
| 2026-04-27 17:10 | 57.07744 | -2.10633 | 2498 ft | 175 kts | 340° |
| 2026-04-27 17:10 | 57.08865 | -2.11454 | 2514 ft | 173 kts | 340° |
| 2026-04-27 17:10 | 57.10002 | -2.12286 | 2306 ft | 178 kts | 340° |
| 2026-04-27 17:11 | 57.11146 | -2.13126 | 2068 ft | 176 kts | 340° |
| 2026-04-27 17:11 | 57.13300 | -2.14714 | 1591 ft | 157 kts | 340° |
| 2026-04-27 17:11 | 57.14333 | -2.15464 | 1384 ft | 161 kts | 341° |
| 2026-04-27 17:12 | 57.16391 | -2.16981 | 937 ft | 161 kts | 340° |
| 2026-04-27 17:12 | 57.17439 | -2.17754 | 703 ft | 162 kts | 341° |
| 2026-04-27 17:12 | 57.18488 | -2.18535 | 482 ft | 164 kts | 340° |
| 2026-04-27 17:13 | 57.19556 | -2.19294 | 255 ft | 162 kts | 336° |
| 2026-04-27 17:13 | 57.20382 | -2.19909 | 253 ft | 77 kts | 338° |
| 2026-04-27 17:13 | 57.20551 | -2.20035 | 254 ft | 3 kts | 337° |
| 2026-04-27 17:13 | 57.20586 | -2.20095 | 254 ft | 9 kts | 289° |
| 2026-04-27 17:14 | 57.20556 | -2.20206 | 252 ft | 12 kts | 227° |
| 2026-04-27 17:14 | 57.20498 | -2.20321 | 252 ft | 13 kts | 226° |
| 2026-04-27 17:14 | 57.20450 | -2.20383 | 252 ft | 13 kts | 193° |
| 2026-04-27 17:14 | 57.20362 | -2.20341 | 252 ft | 13 kts | 159° |
| 2026-04-27 17:15 | 57.20277 | -2.20279 | 252 ft | 13 kts | 158° |
| 2026-04-27 17:15 | 57.20191 | -2.20216 | 252 ft | 13 kts | 158° |
| 2026-04-27 17:15 | 57.20106 | -2.20153 | 252 ft | 13 kts | 158° |
| 2026-04-27 17:15 | 57.20022 | -2.20088 | 252 ft | 11 kts | 158° |
| 2026-04-27 17:16 | 57.19963 | -2.20049 | 252 ft | 0 kts | 169° |
| 2026-04-27 17:16 | 57.19951 | -2.20058 | 252 ft | 2 kts | 207° |
| 2026-04-27 17:16 | 57.19937 | -2.20078 | 252 ft | 3 kts | 219° |
| 2026-04-27 17:16 | 57.19919 | -2.20112 | 252 ft | 2 kts | 226° |
| 2026-04-27 17:17 | 57.19917 | -2.20116 | 252 ft | 0 kts | 226° |